Amite, LA

6:22 AM CST on December 25, 2014 (GMT -0600)
6 Mi East of Amite | Change Station
CLOSE
Current Station
Personal Weather Station
Location: Amite City, LA
Elevation: 203 ft
Nearby Weather Stations

Elev 203 ft 30.73 °N, 90.42 °W | Updated 2 minutes ago

Clear
Clear
31.2 °F
Feels Like 31 °F
N
0.0
Wind Variable Wind from WSW
Gusts 7.0 mph

Today
High -- | Low -- °F
--% Chance of Precip.
Yesterday
High -- | Low -- °F
Precip. -- in
6:57 AM 5:07 PM
Waxing Crescent, 16% visible
Pressure 30.21 in
Visibility 10.0 miles
Clouds Clear
Windchill 31 °F
Dew Point 31 °F
Humidity 98%
Rainfall 0.00 in
Snow Depth Not available.
UV 0 out of 12
Pollen 4.00 out of 12
Air Quality Not available.
Flu Activity Not available.
METAR KMCB 251153Z AUTO 00000KT 10SM CLR M01/M02 A3020 RMK AO2 SLP228 I6001 T10111022 10028 21011 53020

More Conditions Fewer Conditions

Pressure 30.21 in
Visibility 10.0 miles
Clouds Clear
Windchill 31 °F
Dew Point 31 °F
Humidity 98%
Rainfall 0.00 in
Snow Depth Not available.
UV 0 out of 12
Pollen 4.00 out of 12
Air Quality Not available.
Flu Activity Not available.
METAR KMCB 251153Z AUTO 00000KT 10SM CLR M01/M02 A3020 RMK AO2 SLP228 I6001 T10111022 10028 21011 53020

More Conditions Fewer Conditions

10-Day Weather Forecast

Almanac

Astronomy

Dec. 25, 2014 Rise Set
Actual Time
Civil Twilight
Nautical Twilight
Astronomical Twilight
Moon
Length of Visible Light
Length of Day
Tomorrow will be .
, % of the Moon is Illuminated

Today's Extremes

State Highs State Lows

Community

WunderPhotos

Upload Photos

1,780,266 photos uploaded!

WunderBlogs® & News

Nearby

Air Quality

  Air Quality AQ Index Pollutant
Not available.

Snow Depth

Station Depth Elevation

Earthquake Activity

City Distance Mag. Time & Date
Minimum magnitude displayed is 2.5.

Coastal Water Temperatures

Place Temperature

Nearby Weather Stations